This is the latest recevied weather packets stored in our database for station/object 9W2RUT-G. If no packets are shown the sender has not sent any weather packets the latest 10 day(s).
| Time | Temp. | Humidity | Pressure | Rain* | Wind** | Luminosity | Snow |
|---|---|---|---|---|---|---|---|
| 1777810545 | 31.11° C | 40% | 1011.9 hPa | - | - | - | - |
| 1777809698 | 30.56° C | 39% | 1011.6 hPa | - | - | - | - |
| 1777809644 | 30.56° C | 39% | 1011.6 hPa | - | - | - | - |
| 1777804242 | 26.11° C | 33% | 1010.9 hPa | - | - | - | - |
| 1777802442 | 25.56° C | 35% | 1010.9 hPa | - | - | - | - |
| 1777800641 | 25.56° C | 28% | 1010.7 hPa | - | - | - | - |
| 1777799771 | 26.11° C | 30% | 1010.8 hPa | - | - | - | - |
| 1777799740 | 26.11° C | 30% | 1010.8 hPa | - | - | - | - |
| 1777798839 | 26.67° C | 31% | 1010.5 hPa | - | - | - | - |
| 1777797039 | 28.89° C | 31% | 1010.9 hPa | - | - | - | - |
| 1777796138 | 31.11° C | 31% | 1010.8 hPa | - | - | - | - |
| 1777795238 | 35° C | 43% | 1010.9 hPa | - | - | - | - |
| 1777794337 | 35° C | 43% | 1010.9 hPa | - | - | - | - |
| 1777793437 | 35° C | 44% | 1010.9 hPa | - | - | - | - |
| 1777792536 | 35° C | 44% | 1011.2 hPa | - | - | - | - |
| 1777791635 | 35° C | 44% | 1011.2 hPa | - | - | - | - |
| 1777790735 | 35° C | 45% | 1011.6 hPa | - | - | - | - |
| 1777789834 | 35° C | 45% | 1010.9 hPa | - | - | - | - |
| 1777788934 | 34.44° C | 46% | 1011 hPa | - | - | - | - |
| 1777788034 | 34.44° C | 45% | 1011.6 hPa | - | - | - | - |
| 1777787169 | 34.44° C | 45% | 1011.9 hPa | - | - | - | - |
| 1777787133 | 34.44° C | 45% | 1011.9 hPa | - | - | - | - |
| 1777786286 | 33.89° C | 45% | 1012.2 hPa | - | - | - | - |
| 1777786232 | 33.89° C | 45% | 1012.2 hPa | - | - | - | - |
| 1777785331 | 33.89° C | 46% | 1012.6 hPa | - | - | - | - |
* Rain since midnight (hover to see other rain measurements)
** Current wind speed in m/s (hover to see current wind gust speed)